sensor_id;sensor_type;location;lat;lon;timestamp;P1;durP1;ratioP1;P2;durP2;ratioP2
13122;SDS011;6627;50.920;12.050;2024-02-26T00:02:27;16.63;;;9.90;;
13122;SDS011;6627;50.920;12.050;2024-02-26T00:04:57;14.67;;;10.03;;
13122;SDS011;6627;50.920;12.050;2024-02-26T00:07:26;16.10;;;10.03;;
13122;SDS011;6627;50.920;12.050;2024-02-26T00:09:54;13.47;;;9.43;;
13122;SDS011;6627;50.920;12.050;2024-02-26T00:12:21;16.67;;;9.03;;
13122;SDS011;6627;50.920;12.050;2024-02-26T00:14:48;13.53;;;9.03;;
13122;SDS011;6627;50.920;12.050;2024-02-26T00:17:17;15.40;;;9.17;;
13122;SDS011;6627;50.920;12.050;2024-02-26T00:19:44;16.37;;;9.80;;
13122;SDS011;6627;50.920;12.050;2024-02-26T00:22:29;13.47;;;8.70;;
13122;SDS011;6627;50.920;12.050;2024-02-26T00:24:57;12.57;;;9.37;;
13122;SDS011;6627;50.920;12.050;2024-02-26T00:27:25;14.17;;;9.63;;
13122;SDS011;6627;50.920;12.050;2024-02-26T00:29:55;12.47;;;8.90;;
13122;SDS011;6627;50.920;12.050;2024-02-26T00:32:26;14.60;;;8.90;;
13122;SDS011;6627;50.920;12.050;2024-02-26T00:34:53;14.93;;;9.27;;
13122;SDS011;6627;50.920;12.050;2024-02-26T00:37:21;16.67;;;9.33;;
13122;SDS011;6627;50.920;12.050;2024-02-26T00:39:48;13.97;;;9.00;;
13122;SDS011;6627;50.920;12.050;2024-02-26T00:42:15;13.07;;;9.37;;
13122;SDS011;6627;50.920;12.050;2024-02-26T00:44:44;13.13;;;8.63;;
13122;SDS011;6627;50.920;12.050;2024-02-26T00:47:14;12.97;;;8.57;;
13122;SDS011;6627;50.920;12.050;2024-02-26T00:49:45;10.93;;;8.33;;
13122;SDS011;6627;50.920;12.050;2024-02-26T00:52:15;12.23;;;8.93;;
13122;SDS011;6627;50.920;12.050;2024-02-26T00:54:44;13.00;;;9.63;;
13122;SDS011;6627;50.920;12.050;2024-02-26T00:57:11;11.03;;;8.60;;
13122;SDS011;6627;50.920;12.050;2024-02-26T00:59:38;19.70;;;8.73;;
13122;SDS011;6627;50.920;12.050;2024-02-26T01:02:05;10.57;;;8.00;;
13122;SDS011;6627;50.920;12.050;2024-02-26T01:04:33;14.13;;;8.43;;
13122;SDS011;6627;50.920;12.050;2024-02-26T01:07:05;13.93;;;8.90;;
13122;SDS011;6627;50.920;12.050;2024-02-26T01:09:35;14.47;;;9.03;;
13122;SDS011;6627;50.920;12.050;2024-02-26T01:12:05;14.23;;;8.57;;
13122;SDS011;6627;50.920;12.050;2024-02-26T01:14:35;11.87;;;7.53;;
13122;SDS011;6627;50.920;12.050;2024-02-26T01:17:18;13.33;;;8.50;;
13122;SDS011;6627;50.920;12.050;2024-02-26T01:19:45;11.43;;;7.90;;
13122;SDS011;6627;50.920;12.050;2024-02-26T01:22:13;9.87;;;7.67;;
13122;SDS011;6627;50.920;12.050;2024-02-26T01:24:41;14.73;;;8.93;;
13122;SDS011;6627;50.920;12.050;2024-02-26T01:27:08;12.63;;;8.50;;
13122;SDS011;6627;50.920;12.050;2024-02-26T01:29:36;14.70;;;8.47;;
13122;SDS011;6627;50.920;12.050;2024-02-26T01:32:06;11.53;;;8.17;;
13122;SDS011;6627;50.920;12.050;2024-02-26T01:34:36;11.40;;;8.27;;
13122;SDS011;6627;50.920;12.050;2024-02-26T01:37:05;12.00;;;8.47;;
13122;SDS011;6627;50.920;12.050;2024-02-26T01:39:33;11.27;;;8.27;;
13122;SDS011;6627;50.920;12.050;2024-02-26T01:42:00;11.03;;;8.00;;
13122;SDS011;6627;50.920;12.050;2024-02-26T01:44:28;12.43;;;8.43;;
13122;SDS011;6627;50.920;12.050;2024-02-26T01:46:55;11.57;;;8.57;;
13122;SDS011;6627;50.920;12.050;2024-02-26T01:49:42;13.13;;;8.57;;
13122;SDS011;6627;50.920;12.050;2024-02-26T01:52:12;11.63;;;7.50;;
13122;SDS011;6627;50.920;12.050;2024-02-26T01:54:44;12.03;;;8.23;;
13122;SDS011;6627;50.920;12.050;2024-02-26T01:57:12;12.17;;;8.50;;
13122;SDS011;6627;50.920;12.050;2024-02-26T01:59:40;12.73;;;8.07;;
13122;SDS011;6627;50.920;12.050;2024-02-26T02:02:08;10.70;;;7.87;;
13122;SDS011;6627;50.920;12.050;2024-02-26T02:04:38;13.20;;;7.80;;
13122;SDS011;6627;50.920;12.050;2024-02-26T02:07:06;13.00;;;8.47;;
13122;SDS011;6627;50.920;12.050;2024-02-26T02:09:33;13.53;;;8.37;;
13122;SDS011;6627;50.920;12.050;2024-02-26T02:12:05;11.50;;;7.87;;
13122;SDS011;6627;50.920;12.050;2024-02-26T02:14:35;12.80;;;8.73;;
13122;SDS011;6627;50.920;12.050;2024-02-26T02:17:06;20.63;;;8.73;;
13122;SDS011;6627;50.920;12.050;2024-02-26T02:19:36;12.40;;;8.67;;
13122;SDS011;6627;50.920;12.050;2024-02-26T02:22:06;11.53;;;8.40;;
13122;SDS011;6627;50.920;12.050;2024-02-26T02:24:34;13.10;;;9.17;;
13122;SDS011;6627;50.920;12.050;2024-02-26T02:27:01;10.53;;;8.33;;
13122;SDS011;6627;50.920;12.050;2024-02-26T02:29:28;12.13;;;8.57;;
13122;SDS011;6627;50.920;12.050;2024-02-26T02:31:56;15.03;;;9.10;;
13122;SDS011;6627;50.920;12.050;2024-02-26T02:34:28;17.27;;;9.10;;
13122;SDS011;6627;50.920;12.050;2024-02-26T02:36:58;14.67;;;9.97;;
13122;SDS011;6627;50.920;12.050;2024-02-26T02:39:27;13.13;;;8.97;;
13122;SDS011;6627;50.920;12.050;2024-02-26T02:41:55;14.33;;;9.70;;
13122;SDS011;6627;50.920;12.050;2024-02-26T02:44:22;14.53;;;10.03;;
13122;SDS011;6627;50.920;12.050;2024-02-26T02:46:50;16.00;;;10.10;;
13122;SDS011;6627;50.920;12.050;2024-02-26T02:49:18;16.40;;;10.27;;
13122;SDS011;6627;50.920;12.050;2024-02-26T02:51:45;14.30;;;9.50;;
13122;SDS011;6627;50.920;12.050;2024-02-26T02:54:13;15.57;;;10.13;;
13122;SDS011;6627;50.920;12.050;2024-02-26T02:56:44;15.67;;;9.80;;
13122;SDS011;6627;50.920;12.050;2024-02-26T02:59:13;13.43;;;8.67;;
13122;SDS011;6627;50.920;12.050;2024-02-26T03:01:58;14.87;;;9.17;;
13122;SDS011;6627;50.920;12.050;2024-02-26T03:04:44;12.10;;;8.73;;
13122;SDS011;6627;50.920;12.050;2024-02-26T03:07:29;13.37;;;9.03;;
13122;SDS011;6627;50.920;12.050;2024-02-26T03:10:14;12.07;;;8.33;;
13122;SDS011;6627;50.920;12.050;2024-02-26T03:13:01;13.17;;;7.73;;
13122;SDS011;6627;50.920;12.050;2024-02-26T03:15:47;11.20;;;7.63;;
13122;SDS011;6627;50.920;12.050;2024-02-26T03:18:32;11.53;;;8.07;;
13122;SDS011;6627;50.920;12.050;2024-02-26T03:21:18;11.63;;;8.03;;
13122;SDS011;6627;50.920;12.050;2024-02-26T03:24:03;12.00;;;8.30;;
13122;SDS011;6627;50.920;12.050;2024-02-26T03:26:49;12.27;;;8.70;;
13122;SDS011;6627;50.920;12.050;2024-02-26T03:29:37;14.10;;;9.03;;
13122;SDS011;6627;50.920;12.050;2024-02-26T03:32:23;16.33;;;8.20;;
13122;SDS011;6627;50.920;12.050;2024-02-26T03:35:08;12.10;;;8.20;;
13122;SDS011;6627;50.920;12.050;2024-02-26T03:37:54;11.63;;;8.70;;
13122;SDS011;6627;50.920;12.050;2024-02-26T03:40:40;11.97;;;8.23;;
13122;SDS011;6627;50.920;12.050;2024-02-26T03:43:25;12.07;;;8.07;;
13122;SDS011;6627;50.920;12.050;2024-02-26T03:46:12;14.63;;;8.57;;
13122;SDS011;6627;50.920;12.050;2024-02-26T03:48:57;12.23;;;8.17;;
13122;SDS011;6627;50.920;12.050;2024-02-26T03:51:42;13.23;;;8.03;;
13122;SDS011;6627;50.920;12.050;2024-02-26T03:54:28;12.20;;;8.33;;
13122;SDS011;6627;50.920;12.050;2024-02-26T03:56:55;12.87;;;8.70;;
13122;SDS011;6627;50.920;12.050;2024-02-26T03:59:22;16.97;;;8.30;;
13122;SDS011;6627;50.920;12.050;2024-02-26T04:01:54;12.10;;;8.40;;
13122;SDS011;6627;50.920;12.050;2024-02-26T04:04:23;15.70;;;8.47;;
13122;SDS011;6627;50.920;12.050;2024-02-26T04:06:51;11.33;;;8.73;;
13122;SDS011;6627;50.920;12.050;2024-02-26T04:09:19;12.37;;;8.13;;
13122;SDS011;6627;50.920;12.050;2024-02-26T04:11:46;12.57;;;8.17;;
13122;SDS011;6627;50.920;12.050;2024-02-26T04:14:13;12.33;;;7.97;;
13122;SDS011;6627;50.920;12.050;2024-02-26T04:16:40;13.47;;;8.73;;
13122;SDS011;6627;50.920;12.050;2024-02-26T04:19:09;12.10;;;8.73;;
13122;SDS011;6627;50.920;12.050;2024-02-26T04:21:36;15.20;;;9.00;;
13122;SDS011;6627;50.920;12.050;2024-02-26T04:24:04;16.67;;;10.33;;
13122;SDS011;6627;50.920;12.050;2024-02-26T04:26:34;16.03;;;9.73;;
13122;SDS011;6627;50.920;12.050;2024-02-26T04:29:04;14.17;;;9.27;;
13122;SDS011;6627;50.920;12.050;2024-02-26T04:31:32;15.57;;;9.93;;
13122;SDS011;6627;50.920;12.050;2024-02-26T04:34:00;19.70;;;11.43;;
13122;SDS011;6627;50.920;12.050;2024-02-26T04:36:28;17.00;;;10.00;;
13122;SDS011;6627;50.920;12.050;2024-02-26T04:39:12;16.67;;;10.03;;
13122;SDS011;6627;50.920;12.050;2024-02-26T04:41:39;13.13;;;8.67;;
13122;SDS011;6627;50.920;12.050;2024-02-26T04:44:14;14.80;;;9.83;;
13122;SDS011;6627;50.920;12.050;2024-02-26T04:46:42;13.53;;;8.70;;
13122;SDS011;6627;50.920;12.050;2024-02-26T04:49:12;14.27;;;9.13;;
13122;SDS011;6627;50.920;12.050;2024-02-26T04:51:42;13.80;;;9.03;;
13122;SDS011;6627;50.920;12.050;2024-02-26T04:54:08;13.73;;;8.60;;
13122;SDS011;6627;50.920;12.050;2024-02-26T04:56:36;12.47;;;8.83;;
13122;SDS011;6627;50.920;12.050;2024-02-26T04:59:19;16.73;;;9.87;;
13122;SDS011;6627;50.920;12.050;2024-02-26T05:01:47;17.33;;;11.43;;
13122;SDS011;6627;50.920;12.050;2024-02-26T05:04:30;16.53;;;10.73;;
13122;SDS011;6627;50.920;12.050;2024-02-26T05:06:59;17.73;;;11.13;;
13122;SDS011;6627;50.920;12.050;2024-02-26T05:09:27;19.10;;;11.63;;
13122;SDS011;6627;50.920;12.050;2024-02-26T05:11:57;18.90;;;12.70;;
13122;SDS011;6627;50.920;12.050;2024-02-26T05:14:27;17.17;;;11.60;;
13122;SDS011;6627;50.920;12.050;2024-02-26T05:16:54;16.73;;;10.67;;
13122;SDS011;6627;50.920;12.050;2024-02-26T05:19:22;15.40;;;10.53;;
13122;SDS011;6627;50.920;12.050;2024-02-26T05:21:50;16.00;;;11.40;;
13122;SDS011;6627;50.920;12.050;2024-02-26T05:24:18;13.57;;;10.00;;
13122;SDS011;6627;50.920;12.050;2024-02-26T05:26:48;26.20;;;14.43;;
13122;SDS011;6627;50.920;12.050;2024-02-26T05:29:16;23.73;;;13.20;;
13122;SDS011;6627;50.920;12.050;2024-02-26T05:32:01;26.60;;;13.63;;
13122;SDS011;6627;50.920;12.050;2024-02-26T05:34:29;17.83;;;11.17;;
13122;SDS011;6627;50.920;12.050;2024-02-26T05:36:59;16.57;;;10.27;;
13122;SDS011;6627;50.920;12.050;2024-02-26T05:39:31;17.50;;;10.73;;
13122;SDS011;6627;50.920;12.050;2024-02-26T05:41:58;15.87;;;10.97;;
13122;SDS011;6627;50.920;12.050;2024-02-26T05:44:26;14.67;;;9.93;;
13122;SDS011;6627;50.920;12.050;2024-02-26T05:46:54;14.73;;;10.60;;
13122;SDS011;6627;50.920;12.050;2024-02-26T05:49:21;17.30;;;10.23;;
13122;SDS011;6627;50.920;12.050;2024-02-26T05:51:50;23.07;;;12.53;;
13122;SDS011;6627;50.920;12.050;2024-02-26T05:54:20;22.83;;;13.63;;
13122;SDS011;6627;50.920;12.050;2024-02-26T05:56:49;18.97;;;11.20;;
13122;SDS011;6627;50.920;12.050;2024-02-26T05:59:17;17.60;;;10.90;;
13122;SDS011;6627;50.920;12.050;2024-02-26T06:01:45;19.27;;;10.97;;
13122;SDS011;6627;50.920;12.050;2024-02-26T06:04:12;16.70;;;10.23;;
13122;SDS011;6627;50.920;12.050;2024-02-26T06:06:40;20.23;;;11.33;;
13122;SDS011;6627;50.920;12.050;2024-02-26T06:09:07;16.43;;;11.67;;
13122;SDS011;6627;50.920;12.050;2024-02-26T06:11:56;17.90;;;11.67;;
13122;SDS011;6627;50.920;12.050;2024-02-26T06:14:25;20.13;;;11.27;;
13122;SDS011;6627;50.920;12.050;2024-02-26T06:16:53;21.60;;;12.90;;
13122;SDS011;6627;50.920;12.050;2024-02-26T06:19:21;18.93;;;12.33;;
13122;SDS011;6627;50.920;12.050;2024-02-26T06:21:49;22.63;;;13.57;;
13122;SDS011;6627;50.920;12.050;2024-02-26T06:24:16;19.13;;;13.03;;
13122;SDS011;6627;50.920;12.050;2024-02-26T06:26:46;17.77;;;11.83;;
13122;SDS011;6627;50.920;12.050;2024-02-26T06:29:15;21.73;;;12.50;;
13122;SDS011;6627;50.920;12.050;2024-02-26T06:31:42;17.23;;;11.80;;
13122;SDS011;6627;50.920;12.050;2024-02-26T06:34:09;23.73;;;12.20;;
13122;SDS011;6627;50.920;12.050;2024-02-26T06:36:39;20.87;;;12.57;;
13122;SDS011;6627;50.920;12.050;2024-02-26T06:39:09;21.27;;;11.97;;
13122;SDS011;6627;50.920;12.050;2024-02-26T06:41:40;20.83;;;11.10;;
13122;SDS011;6627;50.920;12.050;2024-02-26T06:44:10;19.57;;;10.90;;
13122;SDS011;6627;50.920;12.050;2024-02-26T06:46:39;21.37;;;11.70;;
13122;SDS011;6627;50.920;12.050;2024-02-26T06:49:06;24.60;;;10.87;;
13122;SDS011;6627;50.920;12.050;2024-02-26T06:51:33;17.87;;;10.93;;
13122;SDS011;6627;50.920;12.050;2024-02-26T06:54:01;16.53;;;10.97;;
13122;SDS011;6627;50.920;12.050;2024-02-26T06:56:31;20.30;;;10.73;;
13122;SDS011;6627;50.920;12.050;2024-02-26T06:59:00;17.70;;;11.17;;
13122;SDS011;6627;50.920;12.050;2024-02-26T07:01:30;18.37;;;10.17;;
13122;SDS011;6627;50.920;12.050;2024-02-26T07:04:01;14.93;;;9.70;;
13122;SDS011;6627;50.920;12.050;2024-02-26T07:06:29;23.80;;;11.97;;
13122;SDS011;6627;50.920;12.050;2024-02-26T07:08:56;14.80;;;10.20;;
13122;SDS011;6627;50.920;12.050;2024-02-26T07:11:24;17.40;;;11.23;;
13122;SDS011;6627;50.920;12.050;2024-02-26T07:13:51;20.73;;;10.43;;
13122;SDS011;6627;50.920;12.050;2024-02-26T07:16:18;19.33;;;11.30;;
13122;SDS011;6627;50.920;12.050;2024-02-26T07:18:48;16.73;;;11.07;;
13122;SDS011;6627;50.920;12.050;2024-02-26T07:21:19;22.33;;;11.27;;
13122;SDS011;6627;50.920;12.050;2024-02-26T07:23:47;17.17;;;11.90;;
13122;SDS011;6627;50.920;12.050;2024-02-26T07:26:16;18.27;;;11.90;;
13122;SDS011;6627;50.920;12.050;2024-02-26T07:28:44;18.40;;;12.43;;
13122;SDS011;6627;50.920;12.050;2024-02-26T07:31:12;27.27;;;15.87;;
13122;SDS011;6627;50.920;12.050;2024-02-26T07:33:56;24.80;;;14.17;;
13122;SDS011;6627;50.920;12.050;2024-02-26T07:36:25;25.63;;;13.37;;
13122;SDS011;6627;50.920;12.050;2024-02-26T07:39:12;27.83;;;16.70;;
13122;SDS011;6627;50.920;12.050;2024-02-26T07:41:42;26.43;;;15.33;;
13122;SDS011;6627;50.920;12.050;2024-02-26T07:44:14;24.10;;;14.10;;
13122;SDS011;6627;50.920;12.050;2024-02-26T07:46:45;25.10;;;14.07;;
13122;SDS011;6627;50.920;12.050;2024-02-26T07:49:14;23.90;;;12.87;;
13122;SDS011;6627;50.920;12.050;2024-02-26T07:51:42;23.77;;;13.23;;
13122;SDS011;6627;50.920;12.050;2024-02-26T07:54:10;18.10;;;12.67;;
13122;SDS011;6627;50.920;12.050;2024-02-26T07:56:37;20.73;;;11.93;;
13122;SDS011;6627;50.920;12.050;2024-02-26T07:59:04;27.20;;;14.13;;
13122;SDS011;6627;50.920;12.050;2024-02-26T08:01:34;23.67;;;14.30;;
13122;SDS011;6627;50.920;12.050;2024-02-26T08:04:07;18.30;;;12.83;;
13122;SDS011;6627;50.920;12.050;2024-02-26T08:06:37;22.93;;;12.53;;
13122;SDS011;6627;50.920;12.050;2024-02-26T08:09:06;19.90;;;12.90;;
13122;SDS011;6627;50.920;12.050;2024-02-26T08:11:36;19.67;;;12.93;;
13122;SDS011;6627;50.920;12.050;2024-02-26T08:14:04;21.20;;;12.93;;
13122;SDS011;6627;50.920;12.050;2024-02-26T08:16:31;19.37;;;12.60;;
13122;SDS011;6627;50.920;12.050;2024-02-26T08:18:58;18.73;;;12.70;;
13122;SDS011;6627;50.920;12.050;2024-02-26T08:21:26;17.17;;;10.97;;
13122;SDS011;6627;50.920;12.050;2024-02-26T08:23:56;18.13;;;11.67;;
13122;SDS011;6627;50.920;12.050;2024-02-26T08:26:27;24.93;;;11.87;;
13122;SDS011;6627;50.920;12.050;2024-02-26T08:28:57;17.83;;;11.23;;
13122;SDS011;6627;50.920;12.050;2024-02-26T08:31:27;17.80;;;11.37;;
13122;SDS011;6627;50.920;12.050;2024-02-26T08:33:55;20.37;;;11.77;;
13122;SDS011;6627;50.920;12.050;2024-02-26T08:36:23;16.93;;;11.10;;
13122;SDS011;6627;50.920;12.050;2024-02-26T08:38:51;17.80;;;11.93;;
13122;SDS011;6627;50.920;12.050;2024-02-26T08:41:18;17.83;;;12.03;;
13122;SDS011;6627;50.920;12.050;2024-02-26T08:43:47;25.70;;;13.37;;
13122;SDS011;6627;50.920;12.050;2024-02-26T08:46:17;21.13;;;14.00;;
13122;SDS011;6627;50.920;12.050;2024-02-26T08:48:47;19.17;;;13.13;;
13122;SDS011;6627;50.920;12.050;2024-02-26T08:51:17;22.63;;;14.13;;
13122;SDS011;6627;50.920;12.050;2024-02-26T08:53:45;20.37;;;12.90;;
13122;SDS011;6627;50.920;12.050;2024-02-26T08:56:13;25.77;;;15.30;;
13122;SDS011;6627;50.920;12.050;2024-02-26T08:58:42;24.10;;;17.33;;
13122;SDS011;6627;50.920;12.050;2024-02-26T09:01:11;22.90;;;15.87;;
13122;SDS011;6627;50.920;12.050;2024-02-26T09:03:38;23.47;;;15.53;;
13122;SDS011;6627;50.920;12.050;2024-02-26T09:06:05;20.03;;;14.20;;
13122;SDS011;6627;50.920;12.050;2024-02-26T09:08:36;23.57;;;14.67;;
13122;SDS011;6627;50.920;12.050;2024-02-26T09:11:06;25.33;;;15.60;;
13122;SDS011;6627;50.920;12.050;2024-02-26T09:13:36;23.90;;;15.10;;
13122;SDS011;6627;50.920;12.050;2024-02-26T09:16:06;24.17;;;14.63;;
13122;SDS011;6627;50.920;12.050;2024-02-26T09:18:34;24.00;;;13.97;;
13122;SDS011;6627;50.920;12.050;2024-02-26T09:21:03;21.47;;;14.30;;
13122;SDS011;6627;50.920;12.050;2024-02-26T09:23:32;21.93;;;15.63;;
13122;SDS011;6627;50.920;12.050;2024-02-26T09:26:00;26.97;;;16.27;;
13122;SDS011;6627;50.920;12.050;2024-02-26T09:28:30;24.53;;;16.27;;
13122;SDS011;6627;50.920;12.050;2024-02-26T09:31:05;24.33;;;16.20;;
13122;SDS011;6627;50.920;12.050;2024-02-26T09:33:36;24.50;;;16.23;;
13122;SDS011;6627;50.920;12.050;2024-02-26T09:36:06;22.80;;;16.23;;
13122;SDS011;6627;50.920;12.050;2024-02-26T09:38:38;23.97;;;16.33;;
13122;SDS011;6627;50.920;12.050;2024-02-26T09:41:05;23.90;;;16.07;;
13122;SDS011;6627;50.920;12.050;2024-02-26T09:43:34;23.33;;;16.33;;
13122;SDS011;6627;50.920;12.050;2024-02-26T09:46:03;27.03;;;17.57;;
13122;SDS011;6627;50.920;12.050;2024-02-26T09:48:31;25.17;;;18.13;;
13122;SDS011;6627;50.920;12.050;2024-02-26T09:51:05;23.37;;;16.30;;
13122;SDS011;6627;50.920;12.050;2024-02-26T09:53:35;25.63;;;17.17;;
13122;SDS011;6627;50.920;12.050;2024-02-26T09:56:09;20.83;;;16.10;;
13122;SDS011;6627;50.920;12.050;2024-02-26T09:58:41;23.43;;;16.33;;
13122;SDS011;6627;50.920;12.050;2024-02-26T10:01:11;23.77;;;17.00;;
13122;SDS011;6627;50.920;12.050;2024-02-26T10:03:44;25.97;;;16.10;;
13122;SDS011;6627;50.920;12.050;2024-02-26T10:06:22;25.57;;;16.70;;
13122;SDS011;6627;50.920;12.050;2024-02-26T10:08:52;21.77;;;15.87;;
13122;SDS011;6627;50.920;12.050;2024-02-26T10:11:21;26.23;;;17.03;;
13122;SDS011;6627;50.920;12.050;2024-02-26T10:13:53;23.93;;;16.70;;
13122;SDS011;6627;50.920;12.050;2024-02-26T10:16:21;25.57;;;17.27;;
13122;SDS011;6627;50.920;12.050;2024-02-26T10:18:52;23.87;;;17.23;;
13122;SDS011;6627;50.920;12.050;2024-02-26T10:21:22;23.73;;;17.17;;
13122;SDS011;6627;50.920;12.050;2024-02-26T10:24:07;29.13;;;16.00;;
13122;SDS011;6627;50.920;12.050;2024-02-26T10:26:45;26.50;;;16.83;;
13122;SDS011;6627;50.920;12.050;2024-02-26T10:29:12;21.70;;;16.40;;
13122;SDS011;6627;50.920;12.050;2024-02-26T10:31:41;25.57;;;15.87;;
13122;SDS011;6627;50.920;12.050;2024-02-26T10:34:11;20.70;;;15.73;;
13122;SDS011;6627;50.920;12.050;2024-02-26T10:36:42;26.07;;;16.60;;
13122;SDS011;6627;50.920;12.050;2024-02-26T10:39:12;21.87;;;15.50;;
13122;SDS011;6627;50.920;12.050;2024-02-26T10:41:42;25.67;;;17.60;;
13122;SDS011;6627;50.920;12.050;2024-02-26T10:44:11;24.67;;;16.13;;
13122;SDS011;6627;50.920;12.050;2024-02-26T10:46:40;22.17;;;16.00;;
13122;SDS011;6627;50.920;12.050;2024-02-26T10:49:12;25.47;;;17.70;;
13122;SDS011;6627;50.920;12.050;2024-02-26T10:51:45;26.17;;;17.33;;
13122;SDS011;6627;50.920;12.050;2024-02-26T10:54:21;22.57;;;17.00;;
13122;SDS011;6627;50.920;12.050;2024-02-26T10:56:52;20.17;;;15.63;;
13122;SDS011;6627;50.920;12.050;2024-02-26T10:59:25;22.67;;;15.67;;
13122;SDS011;6627;50.920;12.050;2024-02-26T11:01:56;22.90;;;16.27;;
13122;SDS011;6627;50.920;12.050;2024-02-26T11:04:28;25.27;;;16.53;;
13122;SDS011;6627;50.920;12.050;2024-02-26T11:06:58;20.17;;;15.57;;
13122;SDS011;6627;50.920;12.050;2024-02-26T11:09:26;23.37;;;16.10;;
13122;SDS011;6627;50.920;12.050;2024-02-26T11:11:54;25.90;;;17.23;;
13122;SDS011;6627;50.920;12.050;2024-02-26T11:14:24;24.30;;;15.83;;
13122;SDS011;6627;50.920;12.050;2024-02-26T11:16:56;24.77;;;16.20;;
13122;SDS011;6627;50.920;12.050;2024-02-26T11:19:28;20.63;;;15.87;;
13122;SDS011;6627;50.920;12.050;2024-02-26T11:22:05;24.80;;;16.90;;
13122;SDS011;6627;50.920;12.050;2024-02-26T11:24:36;23.43;;;16.20;;
13122;SDS011;6627;50.920;12.050;2024-02-26T11:27:09;23.63;;;16.10;;
13122;SDS011;6627;50.920;12.050;2024-02-26T11:29:40;20.37;;;16.20;;
13122;SDS011;6627;50.920;12.050;2024-02-26T11:32:14;23.70;;;16.87;;
13122;SDS011;6627;50.920;12.050;2024-02-26T11:34:42;26.10;;;17.30;;
13122;SDS011;6627;50.920;12.050;2024-02-26T11:37:12;21.90;;;16.90;;
13122;SDS011;6627;50.920;12.050;2024-02-26T11:39:44;22.03;;;16.37;;
13122;SDS011;6627;50.920;12.050;2024-02-26T11:42:14;22.30;;;16.70;;
13122;SDS011;6627;50.920;12.050;2024-02-26T11:44:44;28.20;;;17.83;;
13122;SDS011;6627;50.920;12.050;2024-02-26T11:47:12;28.13;;;17.27;;
13122;SDS011;6627;50.920;12.050;2024-02-26T11:49:46;27.07;;;17.23;;
13122;SDS011;6627;50.920;12.050;2024-02-26T11:52:15;27.10;;;17.13;;
13122;SDS011;6627;50.920;12.050;2024-02-26T11:54:44;23.80;;;17.67;;
13122;SDS011;6627;50.920;12.050;2024-02-26T11:57:20;24.00;;;17.67;;
13122;SDS011;6627;50.920;12.050;2024-02-26T11:59:50;22.47;;;17.30;;
13122;SDS011;6627;50.920;12.050;2024-02-26T12:05:09;22.97;;;17.30;;
13122;SDS011;6627;50.920;12.050;2024-02-26T12:07:43;26.43;;;18.13;;
13122;SDS011;6627;50.920;12.050;2024-02-26T12:10:15;22.23;;;17.20;;
13122;SDS011;6627;50.920;12.050;2024-02-26T12:13:08;26.37;;;18.03;;
13122;SDS011;6627;50.920;12.050;2024-02-26T12:15:39;28.40;;;18.33;;
13122;SDS011;6627;50.920;12.050;2024-02-26T12:18:09;30.97;;;19.33;;
13122;SDS011;6627;50.920;12.050;2024-02-26T12:20:44;33.63;;;20.77;;
13122;SDS011;6627;50.920;12.050;2024-02-26T12:23:16;28.90;;;21.27;;
13122;SDS011;6627;50.920;12.050;2024-02-26T12:25:45;33.80;;;21.63;;
13122;SDS011;6627;50.920;12.050;2024-02-26T12:28:15;29.67;;;20.70;;
13122;SDS011;6627;50.920;12.050;2024-02-26T12:30:44;26.00;;;19.50;;
13122;SDS011;6627;50.920;12.050;2024-02-26T12:33:11;28.60;;;18.73;;
13122;SDS011;6627;50.920;12.050;2024-02-26T12:35:40;30.27;;;20.47;;
13122;SDS011;6627;50.920;12.050;2024-02-26T12:38:09;30.00;;;19.40;;
13122;SDS011;6627;50.920;12.050;2024-02-26T12:40:38;26.73;;;18.73;;
13122;SDS011;6627;50.920;12.050;2024-02-26T12:43:06;27.23;;;19.93;;
13122;SDS011;6627;50.920;12.050;2024-02-26T12:45:39;26.40;;;18.77;;
13122;SDS011;6627;50.920;12.050;2024-02-26T12:48:10;26.10;;;18.23;;
13122;SDS011;6627;50.920;12.050;2024-02-26T12:50:44;28.10;;;18.57;;
13122;SDS011;6627;50.920;12.050;2024-02-26T12:53:15;25.67;;;18.70;;
13122;SDS011;6627;50.920;12.050;2024-02-26T12:55:44;24.47;;;17.67;;
13122;SDS011;6627;50.920;12.050;2024-02-26T12:58:11;25.17;;;18.60;;
13122;SDS011;6627;50.920;12.050;2024-02-26T13:00:40;22.47;;;16.97;;
13122;SDS011;6627;50.920;12.050;2024-02-26T13:03:08;25.50;;;17.97;;
13122;SDS011;6627;50.920;12.050;2024-02-26T13:05:36;22.50;;;18.23;;
13122;SDS011;6627;50.920;12.050;2024-02-26T13:08:05;24.30;;;17.30;;
13122;SDS011;6627;50.920;12.050;2024-02-26T13:10:36;24.23;;;18.07;;
13122;SDS011;6627;50.920;12.050;2024-02-26T13:13:07;23.23;;;15.90;;
13122;SDS011;6627;50.920;12.050;2024-02-26T13:15:38;22.80;;;16.37;;
13122;SDS011;6627;50.920;12.050;2024-02-26T13:18:10;22.40;;;14.47;;
13122;SDS011;6627;50.920;12.050;2024-02-26T13:20:39;16.90;;;13.50;;
13122;SDS011;6627;50.920;12.050;2024-02-26T13:23:07;15.57;;;12.70;;
13122;SDS011;6627;50.920;12.050;2024-02-26T13:25:38;16.17;;;12.73;;
13122;SDS011;6627;50.920;12.050;2024-02-26T13:28:08;17.67;;;12.57;;
13122;SDS011;6627;50.920;12.050;2024-02-26T13:30:49;15.70;;;12.57;;
13122;SDS011;6627;50.920;12.050;2024-02-26T13:33:20;20.87;;;12.67;;
13122;SDS011;6627;50.920;12.050;2024-02-26T13:35:51;17.73;;;12.80;;
13122;SDS011;6627;50.920;12.050;2024-02-26T13:38:22;17.37;;;12.43;;
13122;SDS011;6627;50.920;12.050;2024-02-26T13:40:50;17.73;;;12.57;;
13122;SDS011;6627;50.920;12.050;2024-02-26T13:43:19;16.63;;;13.13;;
13122;SDS011;6627;50.920;12.050;2024-02-26T13:45:47;16.33;;;13.03;;
13122;SDS011;6627;50.920;12.050;2024-02-26T13:48:14;16.47;;;12.27;;
13122;SDS011;6627;50.920;12.050;2024-02-26T13:51:02;14.43;;;11.80;;
13122;SDS011;6627;50.920;12.050;2024-02-26T13:53:32;17.40;;;13.00;;
13122;SDS011;6627;50.920;12.050;2024-02-26T13:56:02;18.43;;;12.57;;
13122;SDS011;6627;50.920;12.050;2024-02-26T13:58:35;17.43;;;12.93;;
13122;SDS011;6627;50.920;12.050;2024-02-26T14:01:05;16.93;;;13.13;;
13122;SDS011;6627;50.920;12.050;2024-02-26T14:03:32;18.57;;;12.20;;
13122;SDS011;6627;50.920;12.050;2024-02-26T14:05:59;16.83;;;12.37;;
13122;SDS011;6627;50.920;12.050;2024-02-26T14:08:27;19.93;;;13.40;;
13122;SDS011;6627;50.920;12.050;2024-02-26T14:10:54;19.10;;;13.20;;
13122;SDS011;6627;50.920;12.050;2024-02-26T14:13:28;20.47;;;12.67;;
13122;SDS011;6627;50.920;12.050;2024-02-26T14:15:58;20.63;;;13.13;;
13122;SDS011;6627;50.920;12.050;2024-02-26T14:18:27;18.00;;;12.90;;
13122;SDS011;6627;50.920;12.050;2024-02-26T14:20:57;21.97;;;13.23;;
13122;SDS011;6627;50.920;12.050;2024-02-26T14:23:24;16.83;;;12.53;;
13122;SDS011;6627;50.920;12.050;2024-02-26T14:25:51;17.30;;;12.27;;
13122;SDS011;6627;50.920;12.050;2024-02-26T14:28:19;17.70;;;13.43;;
13122;SDS011;6627;50.920;12.050;2024-02-26T14:30:46;15.50;;;11.73;;
13122;SDS011;6627;50.920;12.050;2024-02-26T14:33:15;17.53;;;12.80;;
13122;SDS011;6627;50.920;12.050;2024-02-26T14:35:45;13.73;;;11.73;;
13122;SDS011;6627;50.920;12.050;2024-02-26T14:38:15;16.07;;;11.77;;
13122;SDS011;6627;50.920;12.050;2024-02-26T14:40:42;17.20;;;12.77;;
13122;SDS011;6627;50.920;12.050;2024-02-26T14:43:10;19.07;;;12.37;;
13122;SDS011;6627;50.920;12.050;2024-02-26T14:45:37;13.90;;;12.33;;
13122;SDS011;6627;50.920;12.050;2024-02-26T14:48:05;16.70;;;12.17;;
13122;SDS011;6627;50.920;12.050;2024-02-26T14:50:35;17.33;;;12.67;;